createdAt,value
2023-04-18T00:01:15.230Z,81.35
2023-04-18T00:03:59.880Z,81.60
2023-04-18T00:06:32.721Z,81.85
2023-04-18T00:09:11.354Z,82.14
2023-04-18T00:11:42.274Z,82.41
2023-04-18T00:14:18.610Z,82.80
2023-04-18T00:16:55.875Z,83.09
2023-04-18T00:19:26.430Z,83.73
2023-04-18T00:22:09.677Z,84.16
2023-04-18T00:24:48.337Z,84.23
2023-04-18T00:27:18.589Z,84.78
2023-04-18T00:30:01.933Z,85.05
2023-04-18T00:32:39.720Z,85.61
2023-04-18T00:35:10.800Z,86.21
2023-04-18T00:37:46.651Z,86.89
2023-04-18T00:40:20.849Z,87.17
2023-04-18T00:42:55.657Z,87.80
2023-04-18T00:45:31.669Z,87.55
2023-04-18T00:48:04.559Z,87.78
2023-04-18T00:50:33.533Z,87.84
2023-04-18T00:53:07.609Z,88.27
2023-04-18T00:55:58.245Z,88.80
2023-04-18T00:58:31.556Z,89.00
2023-04-18T01:01:02.522Z,89.82
2023-04-18T01:03:45.263Z,90.29
2023-04-18T01:06:20.891Z,90.95
2023-04-18T01:08:57.255Z,90.92
2023-04-18T01:11:36.469Z,90.28
2023-04-18T01:14:09.589Z,90.64
2023-04-18T01:17:02.297Z,90.13
2023-04-18T01:19:34.640Z,90.30
2023-04-18T01:22:10.361Z,90.42
2023-04-18T01:24:44.131Z,91.74
2023-04-18T01:27:16.184Z,90.82
2023-04-18T01:29:50.410Z,92.09
2023-04-18T01:32:28.498Z,92.16
2023-04-18T01:34:58.520Z,92.96
2023-04-18T01:37:37.550Z,94.04
2023-04-18T01:40:13.814Z,93.67
2023-04-18T01:42:53.276Z,93.65
2023-04-18T01:45:32.362Z,93.72
2023-04-18T01:48:12.031Z,93.76
2023-04-18T01:50:46.649Z,95.21
2023-04-18T01:53:19.532Z,95.07
2023-04-18T01:55:53.957Z,95.36
2023-04-18T01:58:32.849Z,96.52
2023-04-18T02:01:29.451Z,96.42
2023-04-18T02:04:24.439Z,96.88
2023-04-18T02:07:00.081Z,96.71
2023-04-18T02:09:30.952Z,96.53
2023-04-18T02:12:06.145Z,96.65
2023-04-18T02:14:55.673Z,97.51
2023-04-18T02:17:32.037Z,96.20
2023-04-18T02:20:31.712Z,97.22
2023-04-18T02:23:13.855Z,96.70
2023-04-18T02:25:50.139Z,96.77
2023-04-18T02:28:21.714Z,97.02
2023-04-18T02:31:05.757Z,96.29
2023-04-18T02:33:40.685Z,97.25
2023-04-18T02:36:22.963Z,96.85
2023-04-18T02:38:56.197Z,97.42
2023-04-18T02:41:37.147Z,97.53
2023-04-18T02:44:09.480Z,97.91
2023-04-18T02:46:41.348Z,97.94
2023-04-18T02:49:18.363Z,97.71
2023-04-18T02:51:50.396Z,99.29
2023-04-18T02:54:22.743Z,97.89
2023-04-18T02:57:04.898Z,98.15
2023-04-18T03:00:00.532Z,97.86
2023-04-18T03:02:28.801Z,98.97
2023-04-18T03:05:04.344Z,99.17
2023-04-18T03:07:36.861Z,99.03
2023-04-18T03:10:14.275Z,98.93
2023-04-18T03:12:53.678Z,99.18
2023-04-18T03:15:24.102Z,98.99
2023-04-18T03:18:03.981Z,99.44
2023-04-18T03:20:38.393Z,99.93
2023-04-18T03:23:20.327Z,100.00
2023-04-18T03:26:04.845Z,100.00
2023-04-18T03:28:39.936Z,100.00
2023-04-18T03:31:12.514Z,100.00
2023-04-18T03:33:49.131Z,99.75
2023-04-18T03:36:28.754Z,99.67
2023-04-18T03:39:06.453Z,99.23
2023-04-18T03:41:41.744Z,98.84
2023-04-18T03:44:19.086Z,98.38
2023-04-18T03:46:51.633Z,98.14
2023-04-18T03:49:28.667Z,98.24
2023-04-18T03:52:03.627Z,98.05
2023-04-18T03:54:43.004Z,97.28
2023-04-18T03:57:14.848Z,97.46
2023-04-18T03:59:51.285Z,96.88
2023-04-18T04:02:25.370Z,96.85
2023-04-18T04:04:53.853Z,96.42
2023-04-18T04:07:27.274Z,96.67
2023-04-18T04:09:59.503Z,96.78
2023-04-18T04:12:30.241Z,96.74
2023-04-18T04:15:04.178Z,96.76
2023-04-18T04:17:47.134Z,96.38
2023-04-18T04:20:32.978Z,96.10
2023-04-18T04:23:16.652Z,95.78
2023-04-18T04:25:58.743Z,95.54
2023-04-18T04:28:50.886Z,95.82
2023-04-18T04:31:27.149Z,95.20
2023-04-18T04:37:26.488Z,93.11
2023-04-18T04:40:10.285Z,91.82
2023-04-18T04:43:12.831Z,91.95
2023-04-18T04:45:56.320Z,91.95
2023-04-18T04:48:34.523Z,91.43
2023-04-18T04:51:18.911Z,92.05
2023-04-18T04:53:55.707Z,91.57
2023-04-18T04:56:30.583Z,91.48
2023-04-18T04:59:09.000Z,91.54
2023-04-18T05:02:00.767Z,91.26
2023-04-18T05:04:45.396Z,91.88
2023-04-18T05:07:26.916Z,91.78
2023-04-18T05:09:57.974Z,91.39
2023-04-18T05:12:53.478Z,90.92
2023-04-18T05:15:40.105Z,91.22
2023-04-18T05:18:18.489Z,90.26
2023-04-18T05:20:51.757Z,89.72
2023-04-18T05:23:43.688Z,89.68
2023-04-18T05:26:22.986Z,88.62
2023-04-18T05:28:58.824Z,87.09
2023-04-18T05:31:36.945Z,86.25
2023-04-18T05:34:08.975Z,86.52
2023-04-18T05:36:57.986Z,85.35
2023-04-18T05:39:31.337Z,85.74
2023-04-18T05:42:05.633Z,84.89
2023-04-18T05:45:19.725Z,83.06
2023-04-18T05:47:47.959Z,83.00
2023-04-18T05:50:24.756Z,81.53
2023-04-18T05:55:57.355Z,79.11
2023-04-18T05:58:25.418Z,78.37
2023-04-18T06:01:03.173Z,79.01
2023-04-18T06:07:19.894Z,77.57
2023-04-18T06:13:03.452Z,75.49
2023-04-18T06:15:38.878Z,73.40
2023-04-18T06:21:16.000Z,70.81
2023-04-18T06:23:51.704Z,68.90
2023-04-18T06:26:27.606Z,69.10
2023-04-18T06:29:00.843Z,68.47
2023-04-18T06:32:04.804Z,65.71
2023-04-18T06:34:48.016Z,66.99
2023-04-18T06:37:42.093Z,66.25
2023-04-18T06:43:37.904Z,66.06
2023-04-18T06:46:28.012Z,66.10
2023-04-18T06:52:01.442Z,65.84
2023-04-18T06:54:35.980Z,66.37
2023-04-18T06:57:05.581Z,65.54
2023-04-18T06:59:37.447Z,63.12
2023-04-18T07:02:18.239Z,62.29
2023-04-18T07:04:53.643Z,60.97
2023-04-18T07:07:32.040Z,59.12
2023-04-18T07:10:18.511Z,60.52
2023-04-18T07:15:56.455Z,64.71
2023-04-18T07:18:38.284Z,66.85
2023-04-18T07:21:11.598Z,67.74
2023-04-18T07:23:47.819Z,67.39
2023-04-18T07:26:40.184Z,67.36
2023-04-18T07:29:33.868Z,65.26
2023-04-18T07:32:13.794Z,63.11
2023-04-18T07:35:00.362Z,61.28
2023-04-18T07:37:47.629Z,64.16
2023-04-18T07:40:21.993Z,62.62
2023-04-18T07:43:05.812Z,63.91
2023-04-18T07:45:45.846Z,64.72
2023-04-18T07:48:34.190Z,64.74
2023-04-18T07:51:21.821Z,64.28
2023-04-18T07:54:16.943Z,64.91
2023-04-18T07:57:09.055Z,63.78
2023-04-18T07:59:57.955Z,58.33
2023-04-18T08:02:42.310Z,54.75
2023-04-18T08:05:17.855Z,53.48
2023-04-18T08:08:09.754Z,54.85
2023-04-18T08:10:40.068Z,56.48
2023-04-18T08:13:08.389Z,57.90
2023-04-18T08:15:36.386Z,59.56
2023-04-18T08:18:04.466Z,61.48
2023-04-18T08:20:32.308Z,59.89
2023-04-18T08:23:08.494Z,60.81
2023-04-18T08:25:38.298Z,59.27
2023-04-18T08:28:06.562Z,59.78
2023-04-18T08:30:34.404Z,61.08
2023-04-18T08:33:02.496Z,61.80
2023-04-18T08:35:30.606Z,62.83
2023-04-18T08:37:58.463Z,62.90
2023-04-18T08:40:27.736Z,63.15
2023-04-18T08:42:58.382Z,64.27
2023-04-18T08:45:26.317Z,64.81
2023-04-18T08:47:55.989Z,65.18
2023-04-18T08:50:24.194Z,63.88
2023-04-18T08:52:53.990Z,63.36
2023-04-18T08:55:22.354Z,62.77
2023-04-18T08:57:54.188Z,62.41
2023-04-18T09:00:22.782Z,61.50
2023-04-18T09:02:55.104Z,61.66
2023-04-18T09:05:24.869Z,61.67
2023-04-18T09:07:54.890Z,63.92
2023-04-18T09:10:28.739Z,63.02
2023-04-18T09:12:59.586Z,63.42
2023-04-18T09:15:29.189Z,64.03
2023-04-18T09:17:58.949Z,63.28
2023-04-18T09:20:34.999Z,62.54
2023-04-18T09:23:04.702Z,63.21
2023-04-18T09:25:35.814Z,61.70
2023-04-18T09:28:06.134Z,59.63
2023-04-18T09:30:37.703Z,59.96
2023-04-18T09:33:07.463Z,59.62
2023-04-18T09:35:35.887Z,56.19
2023-04-18T09:38:04.032Z,52.61
2023-04-18T09:40:32.351Z,49.48
2023-04-18T09:43:00.664Z,51.50
2023-04-18T09:45:29.890Z,49.42
2023-04-18T09:47:58.545Z,47.28
2023-04-18T09:50:26.471Z,46.21
2023-04-18T09:52:56.055Z,48.38
2023-04-18T09:55:24.222Z,48.77
2023-04-18T09:57:54.658Z,49.52
2023-04-18T10:00:26.542Z,48.71
2023-04-18T10:02:59.111Z,47.62
2023-04-18T10:05:28.752Z,49.53
2023-04-18T10:07:56.904Z,51.44
2023-04-18T10:10:25.318Z,47.93
2023-04-18T10:12:56.347Z,49.62
2023-04-18T10:15:26.304Z,46.54
2023-04-18T10:18:04.282Z,46.01
2023-04-18T10:20:36.073Z,46.63
2023-04-18T10:23:42.698Z,48.59
2023-04-18T10:26:11.831Z,48.46
2023-04-18T10:28:52.866Z,50.01
2023-04-18T10:31:22.186Z,49.75
2023-04-18T10:34:03.195Z,49.64
2023-04-18T10:36:33.290Z,51.47
2023-04-18T10:39:03.036Z,51.30
2023-04-18T10:41:32.337Z,51.55
2023-04-18T10:44:22.477Z,50.72
2023-04-18T10:47:23.685Z,48.94
2023-04-18T10:49:56.540Z,46.48
2023-04-18T10:52:26.321Z,45.62
2023-04-18T10:54:59.474Z,46.09
2023-04-18T10:57:39.020Z,45.63
2023-04-18T11:00:11.032Z,48.44
2023-04-18T11:02:39.491Z,47.83
2023-04-18T11:05:09.100Z,50.62
2023-04-18T11:07:39.758Z,51.60
2023-04-18T11:10:09.634Z,52.08
2023-04-18T11:12:39.179Z,49.26
2023-04-18T11:15:12.316Z,51.25
2023-04-18T11:17:41.348Z,52.20
2023-04-18T11:20:11.420Z,51.25
2023-04-18T11:22:49.243Z,50.56
2023-04-18T11:25:18.047Z,47.68
2023-04-18T11:27:47.412Z,47.93
2023-04-18T11:30:16.417Z,46.67
2023-04-18T11:32:44.683Z,49.55
2023-04-18T11:35:14.125Z,49.79
2023-04-18T11:37:43.007Z,51.40
2023-04-18T11:40:13.766Z,50.65
2023-04-18T11:42:42.447Z,49.71
2023-04-18T11:45:12.271Z,50.08
2023-04-18T11:47:41.800Z,51.12
2023-04-18T11:50:11.506Z,51.36
2023-04-18T11:52:42.322Z,50.80
2023-04-18T11:55:17.834Z,50.20
2023-04-18T11:57:53.182Z,50.85
2023-04-18T12:00:32.430Z,50.08
2023-04-18T12:03:01.740Z,49.18
2023-04-18T12:05:31.777Z,48.95
2023-04-18T12:08:07.399Z,50.74
2023-04-18T12:10:36.978Z,50.97
2023-04-18T12:13:08.708Z,51.51
2023-04-18T12:15:40.311Z,51.93
2023-04-18T12:18:09.443Z,50.84
2023-04-18T12:20:38.840Z,52.14
2023-04-18T12:23:07.795Z,52.24
2023-04-18T12:25:37.476Z,53.45
2023-04-18T12:28:15.713Z,52.63
2023-04-18T12:30:43.668Z,53.84
2023-04-18T12:33:12.498Z,53.89
2023-04-18T12:35:40.420Z,53.48
2023-04-18T12:38:08.231Z,53.69
2023-04-18T12:40:40.201Z,54.24
2023-04-18T12:43:08.906Z,54.31
2023-04-18T12:45:36.702Z,52.88
2023-04-18T12:48:04.812Z,54.03
2023-04-18T12:50:32.945Z,54.50
2023-04-18T12:53:02.304Z,53.98
2023-04-18T12:55:30.669Z,53.33
2023-04-18T12:58:00.738Z,53.48
2023-04-18T13:00:31.188Z,53.63
2023-04-18T13:02:59.873Z,52.64
2023-04-18T13:05:32.845Z,52.04
2023-04-18T13:08:15.070Z,51.13
2023-04-18T13:10:44.474Z,48.88
2023-04-18T13:13:13.801Z,48.20
2023-04-18T13:15:41.709Z,48.63
2023-04-18T13:18:09.650Z,49.61
2023-04-18T13:20:37.615Z,50.39
2023-04-18T13:23:05.494Z,50.20
2023-04-18T13:25:33.357Z,50.74
2023-04-18T13:28:01.335Z,51.43
2023-04-18T13:30:31.683Z,51.91
2023-04-18T13:32:59.528Z,51.91
2023-04-18T13:35:27.316Z,53.97
2023-04-18T13:37:55.110Z,52.65
2023-04-18T13:40:23.101Z,51.94
2023-04-18T13:42:51.424Z,52.37
2023-04-18T13:45:20.495Z,52.41
2023-04-18T13:47:49.747Z,52.16
2023-04-18T13:50:17.621Z,51.96
2023-04-18T13:52:46.837Z,52.95
2023-04-18T13:55:16.057Z,54.19
2023-04-18T13:57:43.874Z,52.91
2023-04-18T14:00:14.171Z,53.73
2023-04-18T14:02:42.617Z,53.27
2023-04-18T14:05:12.036Z,50.71
2023-04-18T14:07:39.895Z,50.96
2023-04-18T14:10:08.537Z,50.50
2023-04-18T14:12:36.366Z,50.12
2023-04-18T14:15:04.426Z,49.39
2023-04-18T14:17:32.338Z,50.22
2023-04-18T14:20:00.178Z,50.88
2023-04-18T14:22:29.429Z,52.74
2023-04-18T14:24:57.197Z,52.29
2023-04-18T14:27:26.175Z,52.76
2023-04-18T14:29:54.049Z,51.34
2023-04-18T14:32:21.985Z,51.54
2023-04-18T14:34:49.797Z,52.19
2023-04-18T14:37:17.839Z,52.34
2023-04-18T14:39:47.169Z,52.70
2023-04-18T14:42:14.915Z,51.58
2023-04-18T14:44:42.738Z,51.93
2023-04-18T14:47:10.919Z,51.40
2023-04-18T14:49:38.925Z,51.38
2023-04-18T14:52:06.785Z,52.22
2023-04-18T14:54:34.566Z,52.04
2023-04-18T14:57:03.770Z,50.58
2023-04-18T14:59:31.549Z,50.54
2023-04-18T15:01:59.449Z,51.23
2023-04-18T15:04:27.600Z,51.16
2023-04-18T15:06:55.677Z,51.01
2023-04-18T15:09:23.459Z,50.61
2023-04-18T15:11:51.525Z,50.22
2023-04-18T15:14:28.435Z,49.46
2023-04-18T15:16:56.614Z,50.85
2023-04-18T15:19:24.566Z,51.33
2023-04-18T15:21:52.695Z,50.85
2023-04-18T15:24:20.525Z,50.82
2023-04-18T15:26:48.524Z,50.83
2023-04-18T15:29:16.405Z,50.37
2023-04-18T15:31:45.855Z,50.29
2023-04-18T15:34:14.132Z,50.32
2023-04-18T15:36:42.469Z,50.69
2023-04-18T15:39:10.624Z,49.41
2023-04-18T15:41:39.212Z,50.39
2023-04-18T15:44:08.123Z,49.87
2023-04-18T15:46:36.109Z,50.00
2023-04-18T15:49:05.375Z,48.97
2023-04-18T15:51:33.207Z,50.07
2023-04-18T15:54:01.158Z,50.28
2023-04-18T15:56:29.703Z,49.78
2023-04-18T15:59:00.288Z,50.64
2023-04-18T16:01:28.249Z,50.69
2023-04-18T16:03:56.128Z,50.30
2023-04-18T16:06:26.587Z,50.33
2023-04-18T16:08:54.394Z,49.88
2023-04-18T16:11:26.006Z,50.52
2023-04-18T16:13:56.594Z,49.68
2023-04-18T16:16:24.850Z,48.81
2023-04-18T16:18:52.665Z,50.29
2023-04-18T16:21:20.532Z,49.07
2023-04-18T16:23:49.845Z,49.33
2023-04-18T16:26:17.712Z,49.64
2023-04-18T16:28:45.576Z,49.92
2023-04-18T16:31:15.307Z,50.28
2023-04-18T16:33:45.252Z,50.96
2023-04-18T16:36:13.199Z,50.46
2023-04-18T16:38:40.959Z,50.13
2023-04-18T16:41:10.596Z,50.33
2023-04-18T16:43:38.391Z,50.49
2023-04-18T16:46:06.722Z,50.08
2023-04-18T16:48:37.650Z,50.14
2023-04-18T16:51:06.545Z,50.25
2023-04-18T16:53:34.521Z,50.60
2023-04-18T16:56:03.162Z,51.26
2023-04-18T16:58:32.451Z,51.08
2023-04-18T17:01:02.391Z,51.30
2023-04-18T17:03:30.492Z,50.97
2023-04-18T17:05:58.426Z,50.78
2023-04-18T17:08:28.558Z,51.15
2023-04-18T17:10:56.405Z,50.93
2023-04-18T17:13:26.888Z,51.51
2023-04-18T17:15:56.150Z,51.29
2023-04-18T17:18:25.283Z,51.22
2023-04-18T17:20:55.640Z,50.42
2023-04-18T17:23:23.560Z,50.64
2023-04-18T17:25:51.379Z,50.70
2023-04-18T17:28:19.404Z,50.63
2023-04-18T17:30:47.243Z,51.60
2023-04-18T17:33:16.416Z,51.38
2023-04-18T17:35:44.230Z,52.20
2023-04-18T17:38:12.589Z,51.86
2023-04-18T17:40:40.435Z,51.90
2023-04-18T17:43:08.237Z,52.05
2023-04-18T17:45:36.195Z,52.35
2023-04-18T17:48:04.355Z,52.37
2023-04-18T17:50:36.818Z,52.50
2023-04-18T17:53:04.889Z,53.37
2023-04-18T17:55:32.740Z,53.32
2023-04-18T17:58:00.630Z,53.68
2023-04-18T18:00:28.652Z,53.76
2023-04-18T18:02:57.033Z,54.01
2023-04-18T18:05:25.829Z,54.44
2023-04-18T18:07:56.233Z,54.65
2023-04-18T18:10:24.942Z,54.61
2023-04-18T18:12:52.841Z,55.02
2023-04-18T18:15:21.088Z,55.43
2023-04-18T18:17:49.497Z,55.42
2023-04-18T18:20:18.299Z,55.46
2023-04-18T18:22:47.225Z,56.03
2023-04-18T18:25:16.599Z,56.58
2023-04-18T18:27:44.456Z,56.42
2023-04-18T18:30:12.452Z,56.82
2023-04-18T18:32:40.308Z,57.23
2023-04-18T18:35:08.818Z,57.37
2023-04-18T18:37:36.651Z,57.50
2023-04-18T18:40:07.293Z,57.93
2023-04-18T18:42:38.161Z,58.25
2023-04-18T18:45:07.458Z,58.44
2023-04-18T18:47:37.506Z,58.54
2023-04-18T18:50:07.609Z,59.18
2023-04-18T18:52:35.513Z,59.39
2023-04-18T18:55:03.941Z,58.85
2023-04-18T18:57:32.213Z,59.65
2023-04-18T19:00:01.434Z,59.86
2023-04-18T19:02:29.490Z,59.70
2023-04-18T19:04:57.713Z,59.75
2023-04-18T19:07:26.122Z,60.11
2023-04-18T19:09:55.292Z,60.10
2023-04-18T19:12:23.189Z,60.17
2023-04-18T19:14:51.068Z,60.10
2023-04-18T19:17:21.919Z,60.35
2023-04-18T19:19:49.861Z,60.56
2023-04-18T19:22:17.961Z,60.37
2023-04-18T19:24:46.016Z,61.11
2023-04-18T19:27:14.000Z,59.74
2023-04-18T19:29:41.804Z,59.64
2023-04-18T19:32:09.844Z,58.75
2023-04-18T19:34:39.341Z,58.76
2023-04-18T19:37:07.235Z,58.60
2023-04-18T19:39:35.140Z,58.92
2023-04-18T19:42:03.865Z,58.79
2023-04-18T19:44:32.310Z,58.27
2023-04-18T19:47:00.118Z,58.43
2023-04-18T19:49:27.960Z,57.60
2023-04-18T19:51:57.126Z,58.05
2023-04-18T19:54:25.187Z,58.12
2023-04-18T19:56:53.177Z,57.81
2023-04-18T19:59:21.010Z,58.27
2023-04-18T20:01:48.930Z,58.38
2023-04-18T20:04:17.024Z,58.38
2023-04-18T20:06:45.125Z,58.43
2023-04-18T20:09:16.848Z,58.84
2023-04-18T20:11:46.446Z,58.91
2023-04-18T20:14:14.234Z,58.64
2023-04-18T20:16:42.818Z,58.93
2023-04-18T20:19:12.594Z,59.44
2023-04-18T20:21:41.041Z,59.78
2023-04-18T20:24:10.031Z,60.08
2023-04-18T20:26:39.254Z,60.28
2023-04-18T20:29:07.035Z,60.34
2023-04-18T20:31:35.046Z,60.43
2023-04-18T20:34:02.847Z,60.67
2023-04-18T20:36:31.037Z,60.94
2023-04-18T20:39:02.230Z,60.89
2023-04-18T20:41:31.966Z,60.62
2023-04-18T20:44:05.001Z,61.07
2023-04-18T20:46:32.989Z,61.14
2023-04-18T20:49:00.914Z,61.27
2023-04-18T20:51:29.677Z,61.23
2023-04-18T20:53:57.432Z,61.61
2023-04-18T20:56:25.498Z,61.35
2023-04-18T20:58:53.342Z,62.08
2023-04-18T21:01:23.004Z,62.00
2023-04-18T21:03:51.017Z,61.96
2023-04-18T21:06:19.115Z,62.48
2023-04-18T21:08:47.020Z,62.73
2023-04-18T21:11:14.921Z,62.87
2023-04-18T21:13:42.880Z,63.63
2023-04-18T21:16:11.260Z,63.85
2023-04-18T21:18:40.518Z,64.08
2023-04-18T21:21:08.911Z,64.47
2023-04-18T21:23:42.547Z,65.00
2023-04-18T21:26:12.607Z,65.27
2023-04-18T21:28:57.447Z,65.08
2023-04-18T21:31:25.991Z,65.83
2023-04-18T21:33:55.778Z,66.07
2023-04-18T21:36:24.468Z,66.16
2023-04-18T21:38:53.387Z,66.67
2023-04-18T21:41:21.427Z,66.63
2023-04-18T21:43:49.629Z,66.42
2023-04-18T21:46:18.312Z,66.81
2023-04-18T21:48:47.706Z,67.08
2023-04-18T21:51:17.846Z,67.73
2023-04-18T21:53:45.947Z,66.97
2023-04-18T21:56:14.056Z,67.72
2023-04-18T21:58:42.253Z,67.60
2023-04-18T22:01:10.316Z,67.68
2023-04-18T22:03:38.400Z,67.77
2023-04-18T22:06:06.529Z,67.36
2023-04-18T22:08:36.058Z,67.78
2023-04-18T22:11:04.692Z,67.97
2023-04-18T22:13:33.680Z,68.19
2023-04-18T22:16:03.327Z,68.08
2023-04-18T22:18:34.473Z,68.39
2023-04-18T22:21:03.304Z,68.23
2023-04-18T22:23:32.027Z,68.22
2023-04-18T22:26:01.340Z,67.85
2023-04-18T22:28:29.358Z,68.16
2023-04-18T22:30:57.553Z,67.82
2023-04-18T22:33:25.749Z,67.79
2023-04-18T22:35:54.248Z,67.60
2023-04-18T22:38:22.070Z,67.43
2023-04-18T22:40:49.878Z,67.68
2023-04-18T22:43:22.722Z,67.54
2023-04-18T22:45:51.152Z,67.99
2023-04-18T22:48:19.843Z,67.59
2023-04-18T22:50:47.666Z,68.25
2023-04-18T22:53:16.162Z,68.22
2023-04-18T22:55:45.314Z,68.28
2023-04-18T22:58:13.442Z,68.48
2023-04-18T23:00:42.748Z,68.81
2023-04-18T23:03:10.796Z,68.63
2023-04-18T23:05:38.780Z,69.00
2023-04-18T23:08:07.118Z,68.96
2023-04-18T23:10:35.578Z,69.25
2023-04-18T23:13:03.441Z,69.05
2023-04-18T23:15:31.575Z,69.33
2023-04-18T23:18:00.867Z,69.75
2023-04-18T23:20:28.989Z,69.62
2023-04-18T23:22:57.107Z,69.90
2023-04-18T23:25:24.904Z,69.84
2023-04-18T23:27:52.685Z,70.04
2023-04-18T23:30:20.561Z,70.48
2023-04-18T23:32:48.377Z,70.13
2023-04-18T23:35:18.184Z,70.12
2023-04-18T23:37:46.635Z,70.31
2023-04-18T23:40:14.496Z,70.31
2023-04-18T23:42:42.398Z,70.67
2023-04-18T23:45:10.776Z,70.87
2023-04-18T23:47:38.625Z,71.39
2023-04-18T23:50:07.714Z,71.52
2023-04-18T23:52:38.101Z,71.38
2023-04-18T23:55:06.623Z,71.63
2023-04-18T23:57:34.438Z,71.73
